Weather at Ponca City Regional Airport

Public forecast

Using degrees Fahrenheit for public forecast. Weather courtesy of forecast.io.

Current aviation weather report (METAR) for Ponca City Regional Airport

Retrieved 2021/04/21 06:53 UTC (21 minutes ago):

KPNC 210653Z AUTO 00000KT 10SM CLR M01/M03 A3028 RMK AO2 SLP258 T10061033

Aviation forecast (TAF) for Ponca City Regional Airport

Retrieved 2021/04/21 06:21 UTC (53 minutes ago):

TAF KPNC 210520Z 2106/2206 25003KT P6SM FEW120 FM211600 33008KT P6SM BKN120 FM220300 07006KT P6SM BKN080